sensor_id;sensor_type;location;lat;lon;timestamp;P1;durP1;ratioP1;P2;durP2;ratioP2
62258;SDS011;48241;48.824;10.102;2022-08-18T00:02:10;17.25;;;14.15;;
62258;SDS011;48241;48.824;10.102;2022-08-18T00:04:41;16.65;;;13.60;;
62258;SDS011;48241;48.824;10.102;2022-08-18T00:07:09;19.88;;;15.00;;
62258;SDS011;48241;48.824;10.102;2022-08-18T00:09:37;18.65;;;14.80;;
62258;SDS011;48241;48.824;10.102;2022-08-18T00:12:06;17.08;;;14.38;;
62258;SDS011;48241;48.824;10.102;2022-08-18T00:14:36;17.95;;;14.82;;
62258;SDS011;48241;48.824;10.102;2022-08-18T00:17:02;22.08;;;16.40;;
62258;SDS011;48241;48.824;10.102;2022-08-18T00:19:28;17.10;;;15.27;;
62258;SDS011;48241;48.824;10.102;2022-08-18T00:21:53;19.00;;;16.42;;
62258;SDS011;48241;48.824;10.102;2022-08-18T00:24:19;16.45;;;14.75;;
62258;SDS011;48241;48.824;10.102;2022-08-18T00:26:45;18.38;;;15.13;;
62258;SDS011;48241;48.824;10.102;2022-08-18T00:29:10;17.13;;;15.15;;
62258;SDS011;48241;48.824;10.102;2022-08-18T00:31:36;17.73;;;15.60;;
62258;SDS011;48241;48.824;10.102;2022-08-18T00:34:01;18.73;;;15.98;;
62258;SDS011;48241;48.824;10.102;2022-08-18T00:36:27;20.73;;;15.80;;
62258;SDS011;48241;48.824;10.102;2022-08-18T00:38:56;18.35;;;15.85;;
62258;SDS011;48241;48.824;10.102;2022-08-18T00:41:21;15.57;;;14.00;;
62258;SDS011;48241;48.824;10.102;2022-08-18T00:43:50;16.90;;;15.13;;
62258;SDS011;48241;48.824;10.102;2022-08-18T00:46:18;18.27;;;16.42;;
62258;SDS011;48241;48.824;10.102;2022-08-18T00:48:46;20.63;;;16.42;;
62258;SDS011;48241;48.824;10.102;2022-08-18T00:51:18;19.45;;;16.42;;
62258;SDS011;48241;48.824;10.102;2022-08-18T00:56:32;19.90;;;17.90;;
62258;SDS011;48241;48.824;10.102;2022-08-18T00:59:06;22.75;;;18.50;;
62258;SDS011;48241;48.824;10.102;2022-08-18T01:01:40;19.02;;;17.15;;
62258;SDS011;48241;48.824;10.102;2022-08-18T01:04:11;21.25;;;19.05;;
62258;SDS011;48241;48.824;10.102;2022-08-18T01:06:41;21.58;;;19.25;;
62258;SDS011;48241;48.824;10.102;2022-08-18T01:09:15;21.55;;;19.30;;
62258;SDS011;48241;48.824;10.102;2022-08-18T01:11:42;20.85;;;18.60;;
62258;SDS011;48241;48.824;10.102;2022-08-18T01:14:09;19.45;;;17.45;;
62258;SDS011;48241;48.824;10.102;2022-08-18T01:16:42;21.17;;;18.15;;
62258;SDS011;48241;48.824;10.102;2022-08-18T01:19:30;19.23;;;17.38;;
62258;SDS011;48241;48.824;10.102;2022-08-18T01:22:20;19.25;;;17.02;;
62258;SDS011;48241;48.824;10.102;2022-08-18T01:27:33;19.23;;;17.33;;
62258;SDS011;48241;48.824;10.102;2022-08-18T01:30:02;20.38;;;18.15;;
62258;SDS011;48241;48.824;10.102;2022-08-18T01:32:35;20.88;;;18.88;;
62258;SDS011;48241;48.824;10.102;2022-08-18T01:35:03;19.67;;;17.23;;
62258;SDS011;48241;48.824;10.102;2022-08-18T01:37:34;20.33;;;18.42;;
62258;SDS011;48241;48.824;10.102;2022-08-18T01:40:00;19.88;;;17.98;;
62258;SDS011;48241;48.824;10.102;2022-08-18T01:42:30;20.15;;;18.35;;
62258;SDS011;48241;48.824;10.102;2022-08-18T01:44:58;20.45;;;18.40;;
62258;SDS011;48241;48.824;10.102;2022-08-18T01:47:28;18.45;;;16.75;;
62258;SDS011;48241;48.824;10.102;2022-08-18T01:49:56;16.45;;;14.95;;
62258;SDS011;48241;48.824;10.102;2022-08-18T01:52:23;16.55;;;14.95;;
62258;SDS011;48241;48.824;10.102;2022-08-18T01:54:50;16.58;;;14.88;;
62258;SDS011;48241;48.824;10.102;2022-08-18T01:57:17;16.73;;;14.90;;
62258;SDS011;48241;48.824;10.102;2022-08-18T01:59:46;15.50;;;13.85;;
62258;SDS011;48241;48.824;10.102;2022-08-18T02:02:14;15.90;;;14.30;;
62258;SDS011;48241;48.824;10.102;2022-08-18T02:04:44;16.15;;;14.57;;
62258;SDS011;48241;48.824;10.102;2022-08-18T02:07:11;14.68;;;13.18;;
62258;SDS011;48241;48.824;10.102;2022-08-18T02:09:40;15.07;;;13.57;;
62258;SDS011;48241;48.824;10.102;2022-08-18T02:12:08;15.35;;;13.85;;
62258;SDS011;48241;48.824;10.102;2022-08-18T02:14:34;15.52;;;13.88;;
62258;SDS011;48241;48.824;10.102;2022-08-18T02:17:02;16.90;;;13.45;;
62258;SDS011;48241;48.824;10.102;2022-08-18T02:19:34;15.13;;;13.52;;
62258;SDS011;48241;48.824;10.102;2022-08-18T02:22:02;14.82;;;13.52;;
62258;SDS011;48241;48.824;10.102;2022-08-18T02:24:28;15.75;;;14.25;;
62258;SDS011;48241;48.824;10.102;2022-08-18T02:26:56;15.00;;;13.50;;
62258;SDS011;48241;48.824;10.102;2022-08-18T02:29:23;15.02;;;13.63;;
62258;SDS011;48241;48.824;10.102;2022-08-18T02:31:52;14.43;;;13.10;;
62258;SDS011;48241;48.824;10.102;2022-08-18T02:34:17;16.10;;;14.60;;
62258;SDS011;48241;48.824;10.102;2022-08-18T02:36:44;14.98;;;13.48;;
62258;SDS011;48241;48.824;10.102;2022-08-18T02:39:11;14.85;;;13.43;;
62258;SDS011;48241;48.824;10.102;2022-08-18T02:41:37;14.00;;;12.77;;
62258;SDS011;48241;48.824;10.102;2022-08-18T02:44:05;14.32;;;12.77;;
62258;SDS011;48241;48.824;10.102;2022-08-18T02:46:32;13.90;;;12.55;;
62258;SDS011;48241;48.824;10.102;2022-08-18T02:48:58;15.57;;;13.98;;
62258;SDS011;48241;48.824;10.102;2022-08-18T02:51:24;17.23;;;15.35;;
62258;SDS011;48241;48.824;10.102;2022-08-18T02:53:52;16.40;;;14.68;;
62258;SDS011;48241;48.824;10.102;2022-08-18T02:56:23;16.02;;;14.43;;
62258;SDS011;48241;48.824;10.102;2022-08-18T02:58:54;14.13;;;12.82;;
62258;SDS011;48241;48.824;10.102;2022-08-18T03:01:31;15.05;;;13.63;;
62258;SDS011;48241;48.824;10.102;2022-08-18T03:04:02;14.85;;;13.55;;
62258;SDS011;48241;48.824;10.102;2022-08-18T03:06:29;13.18;;;11.45;;
62258;SDS011;48241;48.824;10.102;2022-08-18T03:08:56;13.45;;;12.15;;
62258;SDS011;48241;48.824;10.102;2022-08-18T03:11:25;13.90;;;12.63;;
62258;SDS011;48241;48.824;10.102;2022-08-18T03:13:53;14.30;;;12.80;;
62258;SDS011;48241;48.824;10.102;2022-08-18T03:16:21;14.27;;;12.82;;
62258;SDS011;48241;48.824;10.102;2022-08-18T03:18:48;14.20;;;12.90;;
62258;SDS011;48241;48.824;10.102;2022-08-18T03:21:20;13.88;;;12.48;;
62258;SDS011;48241;48.824;10.102;2022-08-18T03:23:47;12.85;;;11.75;;
62258;SDS011;48241;48.824;10.102;2022-08-18T03:26:15;13.38;;;11.98;;
62258;SDS011;48241;48.824;10.102;2022-08-18T03:28:42;12.73;;;11.52;;
62258;SDS011;48241;48.824;10.102;2022-08-18T03:31:11;13.82;;;12.52;;
62258;SDS011;48241;48.824;10.102;2022-08-18T03:33:38;13.23;;;11.95;;
62258;SDS011;48241;48.824;10.102;2022-08-18T03:36:09;14.02;;;12.50;;
62258;SDS011;48241;48.824;10.102;2022-08-18T03:38:37;14.27;;;13.07;;
62258;SDS011;48241;48.824;10.102;2022-08-18T03:41:05;14.00;;;12.70;;
62258;SDS011;48241;48.824;10.102;2022-08-18T03:43:32;15.20;;;13.77;;
62258;SDS011;48241;48.824;10.102;2022-08-18T03:46:01;14.43;;;13.02;;
62258;SDS011;48241;48.824;10.102;2022-08-18T03:48:34;14.32;;;12.93;;
62258;SDS011;48241;48.824;10.102;2022-08-18T03:51:11;14.88;;;13.25;;
62258;SDS011;48241;48.824;10.102;2022-08-18T03:53:40;13.38;;;12.02;;
62258;SDS011;48241;48.824;10.102;2022-08-18T03:56:07;14.55;;;13.10;;
62258;SDS011;48241;48.824;10.102;2022-08-18T03:59:03;15.55;;;13.98;;
62258;SDS011;48241;48.824;10.102;2022-08-18T04:01:29;15.30;;;13.93;;
62258;SDS011;48241;48.824;10.102;2022-08-18T04:03:57;14.70;;;13.30;;
62258;SDS011;48241;48.824;10.102;2022-08-18T04:06:28;14.73;;;13.23;;
62258;SDS011;48241;48.824;10.102;2022-08-18T04:08:57;14.63;;;13.32;;
62258;SDS011;48241;48.824;10.102;2022-08-18T04:11:25;17.50;;;15.70;;
62258;SDS011;48241;48.824;10.102;2022-08-18T04:13:53;19.42;;;17.42;;
62258;SDS011;48241;48.824;10.102;2022-08-18T04:16:21;17.40;;;15.70;;
62258;SDS011;48241;48.824;10.102;2022-08-18T04:18:51;22.00;;;19.70;;
62258;SDS011;48241;48.824;10.102;2022-08-18T04:21:17;23.17;;;20.65;;
62258;SDS011;48241;48.824;10.102;2022-08-18T04:23:43;29.60;;;24.25;;
62258;SDS011;48241;48.824;10.102;2022-08-18T04:26:09;31.48;;;26.20;;
62258;SDS011;48241;48.824;10.102;2022-08-18T04:28:37;33.08;;;29.45;;
62258;SDS011;48241;48.824;10.102;2022-08-18T04:31:07;30.80;;;27.50;;
62258;SDS011;48241;48.824;10.102;2022-08-18T04:33:34;32.50;;;28.15;;
62258;SDS011;48241;48.824;10.102;2022-08-18T04:36:06;32.53;;;29.00;;
62258;SDS011;48241;48.824;10.102;2022-08-18T04:38:33;32.50;;;29.02;;
62258;SDS011;48241;48.824;10.102;2022-08-18T04:40:59;36.42;;;29.48;;
62258;SDS011;48241;48.824;10.102;2022-08-18T04:43:24;30.88;;;27.80;;
62258;SDS011;48241;48.824;10.102;2022-08-18T04:45:50;32.45;;;28.17;;
62258;SDS011;48241;48.824;10.102;2022-08-18T04:48:15;31.52;;;28.15;;
62258;SDS011;48241;48.824;10.102;2022-08-18T04:50:41;32.00;;;28.67;;
62258;SDS011;48241;48.824;10.102;2022-08-18T04:53:07;31.48;;;28.15;;
62258;SDS011;48241;48.824;10.102;2022-08-18T04:55:53;31.98;;;28.58;;
62258;SDS011;48241;48.824;10.102;2022-08-18T04:58:20;30.02;;;26.95;;
62258;SDS011;48241;48.824;10.102;2022-08-18T05:00:55;31.10;;;27.73;;
62258;SDS011;48241;48.824;10.102;2022-08-18T05:03:22;31.55;;;28.33;;
62258;SDS011;48241;48.824;10.102;2022-08-18T05:05:50;31.13;;;28.10;;
62258;SDS011;48241;48.824;10.102;2022-08-18T05:08:18;30.45;;;27.40;;
62258;SDS011;48241;48.824;10.102;2022-08-18T05:10:44;30.60;;;27.40;;
62258;SDS011;48241;48.824;10.102;2022-08-18T05:13:11;29.92;;;26.80;;
62258;SDS011;48241;48.824;10.102;2022-08-18T05:15:40;28.38;;;25.35;;
62258;SDS011;48241;48.824;10.102;2022-08-18T05:18:07;28.30;;;25.38;;
62258;SDS011;48241;48.824;10.102;2022-08-18T05:20:33;31.02;;;26.58;;
62258;SDS011;48241;48.824;10.102;2022-08-18T05:22:59;27.77;;;25.08;;
62258;SDS011;48241;48.824;10.102;2022-08-18T05:25:24;25.95;;;23.30;;
62258;SDS011;48241;48.824;10.102;2022-08-18T05:27:50;25.77;;;23.17;;
62258;SDS011;48241;48.824;10.102;2022-08-18T05:30:15;25.48;;;22.90;;
62258;SDS011;48241;48.824;10.102;2022-08-18T05:32:42;24.55;;;22.30;;
62258;SDS011;48241;48.824;10.102;2022-08-18T05:35:19;22.85;;;20.60;;
62258;SDS011;48241;48.824;10.102;2022-08-18T05:40:13;22.77;;;20.33;;
62258;SDS011;48241;48.824;10.102;2022-08-18T05:42:39;20.60;;;18.60;;
62258;SDS011;48241;48.824;10.102;2022-08-18T05:45:12;20.45;;;18.35;;
62258;SDS011;48241;48.824;10.102;2022-08-18T05:47:40;19.17;;;17.30;;
62258;SDS011;48241;48.824;10.102;2022-08-18T05:50:08;18.35;;;16.45;;
62258;SDS011;48241;48.824;10.102;2022-08-18T05:55:15;18.73;;;16.92;;
62258;SDS011;48241;48.824;10.102;2022-08-18T06:00:47;17.23;;;15.50;;
62258;SDS011;48241;48.824;10.102;2022-08-18T06:03:21;18.23;;;16.48;;
62258;SDS011;48241;48.824;10.102;2022-08-18T06:06:00;17.73;;;15.98;;
62258;SDS011;48241;48.824;10.102;2022-08-18T06:11:31;18.73;;;16.83;;
62258;SDS011;48241;48.824;10.102;2022-08-18T06:13:56;19.02;;;17.25;;
62258;SDS011;48241;48.824;10.102;2022-08-18T06:16:30;19.98;;;17.88;;
62258;SDS011;48241;48.824;10.102;2022-08-18T06:27:39;17.30;;;15.75;;
62258;SDS011;48241;48.824;10.102;2022-08-18T06:35:35;16.40;;;14.77;;
62258;SDS011;48241;48.824;10.102;2022-08-18T06:41:10;15.57;;;14.07;;
62258;SDS011;48241;48.824;10.102;2022-08-18T06:43:58;15.95;;;14.25;;
62258;SDS011;48241;48.824;10.102;2022-08-18T06:46:46;15.43;;;13.93;;
62258;SDS011;48241;48.824;10.102;2022-08-18T06:54:54;13.07;;;11.88;;
62258;SDS011;48241;48.824;10.102;2022-08-18T06:57:31;13.85;;;12.45;;
62258;SDS011;48241;48.824;10.102;2022-08-18T07:00:06;14.98;;;13.52;;
62258;SDS011;48241;48.824;10.102;2022-08-18T07:02:57;13.85;;;12.55;;
62258;SDS011;48241;48.824;10.102;2022-08-18T07:05:30;14.18;;;12.77;;
62258;SDS011;48241;48.824;10.102;2022-08-18T07:10:51;13.40;;;12.00;;
62258;SDS011;48241;48.824;10.102;2022-08-18T07:13:18;12.30;;;11.00;;
62258;SDS011;48241;48.824;10.102;2022-08-18T07:15:47;11.65;;;10.65;;
62258;SDS011;48241;48.824;10.102;2022-08-18T07:18:14;11.07;;;9.98;;
62258;SDS011;48241;48.824;10.102;2022-08-18T07:23:37;10.68;;;9.68;;
62258;SDS011;48241;48.824;10.102;2022-08-18T07:26:14;10.63;;;9.65;;
62258;SDS011;48241;48.824;10.102;2022-08-18T07:28:42;9.70;;;8.70;;
62258;SDS011;48241;48.824;10.102;2022-08-18T07:34:12;8.25;;;7.43;;
62258;SDS011;48241;48.824;10.102;2022-08-18T07:36:52;6.93;;;6.30;;
62258;SDS011;48241;48.824;10.102;2022-08-18T07:39:26;7.20;;;6.50;;
62258;SDS011;48241;48.824;10.102;2022-08-18T07:44:37;7.78;;;7.07;;
62258;SDS011;48241;48.824;10.102;2022-08-18T07:49:44;5.88;;;5.38;;
62258;SDS011;48241;48.824;10.102;2022-08-18T07:52:23;6.80;;;6.22;;
62258;SDS011;48241;48.824;10.102;2022-08-18T07:55:04;6.70;;;6.10;;
62258;SDS011;48241;48.824;10.102;2022-08-18T08:00:03;7.35;;;6.72;;
62258;SDS011;48241;48.824;10.102;2022-08-18T08:05:16;7.68;;;7.05;;
62258;SDS011;48241;48.824;10.102;2022-08-18T08:08:06;8.38;;;7.53;;
62258;SDS011;48241;48.824;10.102;2022-08-18T08:25:18;8.18;;;7.38;;
62258;SDS011;48241;48.824;10.102;2022-08-18T08:30:28;8.38;;;7.35;;
62258;SDS011;48241;48.824;10.102;2022-08-18T08:33:09;8.00;;;7.20;;
62258;SDS011;48241;48.824;10.102;2022-08-18T08:35:40;9.50;;;7.13;;
62258;SDS011;48241;48.824;10.102;2022-08-18T08:38:34;9.35;;;7.57;;
62258;SDS011;48241;48.824;10.102;2022-08-18T08:44:02;9.25;;;8.32;;
62258;SDS011;48241;48.824;10.102;2022-08-18T08:46:41;11.45;;;9.00;;
62258;SDS011;48241;48.824;10.102;2022-08-18T08:51:48;11.95;;;8.90;;
62258;SDS011;48241;48.824;10.102;2022-08-18T08:54:23;9.38;;;8.48;;
62258;SDS011;48241;48.824;10.102;2022-08-18T08:59:30;8.43;;;7.40;;
62258;SDS011;48241;48.824;10.102;2022-08-18T09:07:44;8.85;;;8.05;;
62258;SDS011;48241;48.824;10.102;2022-08-18T09:10:29;9.73;;;8.73;;
62258;SDS011;48241;48.824;10.102;2022-08-18T09:13:20;9.55;;;8.63;;
62258;SDS011;48241;48.824;10.102;2022-08-18T09:16:10;9.80;;;8.90;;
62258;SDS011;48241;48.824;10.102;2022-08-18T09:24:22;10.30;;;9.35;;
62258;SDS011;48241;48.824;10.102;2022-08-18T09:27:22;10.38;;;9.30;;
62258;SDS011;48241;48.824;10.102;2022-08-18T09:30:01;10.85;;;9.60;;
62258;SDS011;48241;48.824;10.102;2022-08-18T09:32:38;10.38;;;9.40;;
62258;SDS011;48241;48.824;10.102;2022-08-18T09:35:22;9.85;;;8.95;;
62258;SDS011;48241;48.824;10.102;2022-08-18T09:37:57;9.90;;;9.02;;
62258;SDS011;48241;48.824;10.102;2022-08-18T09:40:53;9.32;;;8.43;;
62258;SDS011;48241;48.824;10.102;2022-08-18T09:51:46;8.95;;;8.25;;
62258;SDS011;48241;48.824;10.102;2022-08-18T09:54:17;10.05;;;9.02;;
62258;SDS011;48241;48.824;10.102;2022-08-18T10:01:59;9.63;;;8.57;;
62258;SDS011;48241;48.824;10.102;2022-08-18T10:04:28;9.25;;;8.43;;
62258;SDS011;48241;48.824;10.102;2022-08-18T10:12:33;9.93;;;9.02;;
62258;SDS011;48241;48.824;10.102;2022-08-18T10:15:21;9.93;;;9.02;;
62258;SDS011;48241;48.824;10.102;2022-08-18T10:18:25;8.43;;;7.72;;
62258;SDS011;48241;48.824;10.102;2022-08-18T10:21:10;9.52;;;8.25;;
62258;SDS011;48241;48.824;10.102;2022-08-18T10:23:48;9.23;;;8.30;;
62258;SDS011;48241;48.824;10.102;2022-08-18T10:37:11;9.00;;;8.20;;
62258;SDS011;48241;48.824;10.102;2022-08-18T10:39:47;14.75;;;13.32;;
62258;SDS011;48241;48.824;10.102;2022-08-18T10:42:26;7.53;;;6.80;;
62258;SDS011;48241;48.824;10.102;2022-08-18T10:45:05;8.85;;;7.20;;
62258;SDS011;48241;48.824;10.102;2022-08-18T10:47:38;7.93;;;7.18;;
62258;SDS011;48241;48.824;10.102;2022-08-18T10:50:07;7.47;;;6.88;;
62258;SDS011;48241;48.824;10.102;2022-08-18T10:58:43;8.45;;;7.75;;
62258;SDS011;48241;48.824;10.102;2022-08-18T11:03:58;8.40;;;7.70;;
62258;SDS011;48241;48.824;10.102;2022-08-18T11:06:37;7.95;;;7.25;;
62258;SDS011;48241;48.824;10.102;2022-08-18T11:09:05;8.73;;;7.82;;
62258;SDS011;48241;48.824;10.102;2022-08-18T11:11:36;9.27;;;8.48;;
62258;SDS011;48241;48.824;10.102;2022-08-18T11:19:54;9.05;;;7.20;;
62258;SDS011;48241;48.824;10.102;2022-08-18T11:22:24;9.18;;;8.35;;
62258;SDS011;48241;48.824;10.102;2022-08-18T11:24:52;8.90;;;8.20;;
62258;SDS011;48241;48.824;10.102;2022-08-18T11:27:19;9.73;;;7.40;;
62258;SDS011;48241;48.824;10.102;2022-08-18T11:29:49;8.68;;;7.90;;
62258;SDS011;48241;48.824;10.102;2022-08-18T11:32:23;8.68;;;7.85;;
62258;SDS011;48241;48.824;10.102;2022-08-18T11:45:48;9.68;;;8.73;;
62258;SDS011;48241;48.824;10.102;2022-08-18T11:48:21;8.45;;;7.75;;
62258;SDS011;48241;48.824;10.102;2022-08-18T11:53:23;9.35;;;8.55;;
62258;SDS011;48241;48.824;10.102;2022-08-18T11:59:04;8.60;;;7.75;;
62258;SDS011;48241;48.824;10.102;2022-08-18T12:04:35;7.60;;;6.97;;
62258;SDS011;48241;48.824;10.102;2022-08-18T12:07:12;7.93;;;7.18;;
62258;SDS011;48241;48.824;10.102;2022-08-18T12:09:44;7.70;;;6.90;;
62258;SDS011;48241;48.824;10.102;2022-08-18T12:14:57;8.60;;;6.97;;
62258;SDS011;48241;48.824;10.102;2022-08-18T12:17:25;8.20;;;7.50;;
62258;SDS011;48241;48.824;10.102;2022-08-18T12:19:52;7.70;;;7.05;;
62258;SDS011;48241;48.824;10.102;2022-08-18T12:22:19;8.30;;;6.68;;
62258;SDS011;48241;48.824;10.102;2022-08-18T12:24:47;7.03;;;6.30;;
62258;SDS011;48241;48.824;10.102;2022-08-18T12:27:13;7.35;;;6.65;;
62258;SDS011;48241;48.824;10.102;2022-08-18T12:29:41;7.20;;;6.50;;
62258;SDS011;48241;48.824;10.102;2022-08-18T12:32:07;7.15;;;6.50;;
62258;SDS011;48241;48.824;10.102;2022-08-18T12:34:33;8.18;;;7.38;;
62258;SDS011;48241;48.824;10.102;2022-08-18T12:36:59;7.40;;;6.78;;
62258;SDS011;48241;48.824;10.102;2022-08-18T12:39:25;8.88;;;7.80;;
62258;SDS011;48241;48.824;10.102;2022-08-18T12:41:52;7.95;;;7.25;;
62258;SDS011;48241;48.824;10.102;2022-08-18T12:44:18;8.15;;;7.10;;
62258;SDS011;48241;48.824;10.102;2022-08-18T12:46:44;7.30;;;6.63;;
62258;SDS011;48241;48.824;10.102;2022-08-18T12:49:13;7.95;;;7.25;;
62258;SDS011;48241;48.824;10.102;2022-08-18T12:51:41;7.28;;;6.43;;
62258;SDS011;48241;48.824;10.102;2022-08-18T12:54:07;8.38;;;7.18;;
62258;SDS011;48241;48.824;10.102;2022-08-18T12:56:33;7.43;;;6.72;;
62258;SDS011;48241;48.824;10.102;2022-08-18T12:59:00;8.75;;;7.60;;
62258;SDS011;48241;48.824;10.102;2022-08-18T13:01:27;7.95;;;7.15;;
62258;SDS011;48241;48.824;10.102;2022-08-18T13:03:53;7.95;;;7.07;;
62258;SDS011;48241;48.824;10.102;2022-08-18T13:06:20;7.07;;;6.47;;
62258;SDS011;48241;48.824;10.102;2022-08-18T13:08:47;8.55;;;7.68;;
62258;SDS011;48241;48.824;10.102;2022-08-18T13:11:14;9.23;;;8.10;;
62258;SDS011;48241;48.824;10.102;2022-08-18T13:13:40;7.53;;;6.82;;
62258;SDS011;48241;48.824;10.102;2022-08-18T13:16:06;8.02;;;7.32;;
62258;SDS011;48241;48.824;10.102;2022-08-18T13:18:32;7.78;;;6.97;;
62258;SDS011;48241;48.824;10.102;2022-08-18T13:20:59;6.65;;;6.00;;
62258;SDS011;48241;48.824;10.102;2022-08-18T13:23:25;8.00;;;6.82;;
62258;SDS011;48241;48.824;10.102;2022-08-18T13:25:51;7.05;;;6.45;;
62258;SDS011;48241;48.824;10.102;2022-08-18T13:28:17;9.02;;;7.85;;
62258;SDS011;48241;48.824;10.102;2022-08-18T13:30:43;7.90;;;7.20;;
62258;SDS011;48241;48.824;10.102;2022-08-18T13:33:10;7.60;;;6.82;;
62258;SDS011;48241;48.824;10.102;2022-08-18T13:35:36;7.57;;;6.88;;
62258;SDS011;48241;48.824;10.102;2022-08-18T13:38:02;8.20;;;7.40;;
62258;SDS011;48241;48.824;10.102;2022-08-18T13:40:29;7.78;;;7.00;;
62258;SDS011;48241;48.824;10.102;2022-08-18T13:42:55;7.28;;;6.32;;
62258;SDS011;48241;48.824;10.102;2022-08-18T13:45:21;7.38;;;6.70;;
62258;SDS011;48241;48.824;10.102;2022-08-18T13:47:48;8.70;;;7.80;;
62258;SDS011;48241;48.824;10.102;2022-08-18T13:50:15;8.90;;;8.00;;
62258;SDS011;48241;48.824;10.102;2022-08-18T13:52:41;8.10;;;7.40;;
62258;SDS011;48241;48.824;10.102;2022-08-18T13:55:15;7.47;;;6.78;;
62258;SDS011;48241;48.824;10.102;2022-08-18T13:57:42;7.63;;;6.93;;
62258;SDS011;48241;48.824;10.102;2022-08-18T14:00:13;8.00;;;7.22;;
62258;SDS011;48241;48.824;10.102;2022-08-18T14:02:41;8.05;;;6.97;;
62258;SDS011;48241;48.824;10.102;2022-08-18T14:05:07;7.05;;;6.47;;
62258;SDS011;48241;48.824;10.102;2022-08-18T14:07:36;7.50;;;6.80;;
62258;SDS011;48241;48.824;10.102;2022-08-18T14:10:05;7.30;;;6.60;;
62258;SDS011;48241;48.824;10.102;2022-08-18T14:12:33;6.60;;;6.10;;
62258;SDS011;48241;48.824;10.102;2022-08-18T14:15:00;6.95;;;6.25;;
62258;SDS011;48241;48.824;10.102;2022-08-18T14:17:26;10.80;;;6.50;;
62258;SDS011;48241;48.824;10.102;2022-08-18T14:19:52;6.85;;;6.10;;
62258;SDS011;48241;48.824;10.102;2022-08-18T14:22:37;7.22;;;5.90;;
62258;SDS011;48241;48.824;10.102;2022-08-18T14:25:21;6.90;;;6.05;;
62258;SDS011;48241;48.824;10.102;2022-08-18T14:28:05;6.38;;;5.78;;
62258;SDS011;48241;48.824;10.102;2022-08-18T14:30:33;5.80;;;5.30;;
62258;SDS011;48241;48.824;10.102;2022-08-18T14:33:00;6.28;;;5.65;;
62258;SDS011;48241;48.824;10.102;2022-08-18T14:35:32;7.23;;;5.80;;
62258;SDS011;48241;48.824;10.102;2022-08-18T14:37:58;7.38;;;6.70;;
62258;SDS011;48241;48.824;10.102;2022-08-18T14:40:25;7.43;;;6.07;;
62258;SDS011;48241;48.824;10.102;2022-08-18T14:42:52;6.40;;;5.80;;
62258;SDS011;48241;48.824;10.102;2022-08-18T14:45:18;7.03;;;5.88;;
62258;SDS011;48241;48.824;10.102;2022-08-18T14:47:44;5.78;;;5.38;;
62258;SDS011;48241;48.824;10.102;2022-08-18T14:50:09;8.57;;;5.53;;
62258;SDS011;48241;48.824;10.102;2022-08-18T14:52:37;6.18;;;5.68;;
62258;SDS011;48241;48.824;10.102;2022-08-18T14:55:04;6.25;;;5.65;;
62258;SDS011;48241;48.824;10.102;2022-08-18T14:57:30;6.28;;;5.68;;
62258;SDS011;48241;48.824;10.102;2022-08-18T14:59:56;7.80;;;5.70;;
62258;SDS011;48241;48.824;10.102;2022-08-18T15:02:21;5.78;;;5.10;;
62258;SDS011;48241;48.824;10.102;2022-08-18T15:04:47;6.30;;;5.75;;
62258;SDS011;48241;48.824;10.102;2022-08-18T15:07:13;5.90;;;5.40;;
62258;SDS011;48241;48.824;10.102;2022-08-18T15:09:38;7.28;;;5.45;;
62258;SDS011;48241;48.824;10.102;2022-08-18T15:12:04;6.72;;;5.65;;
62258;SDS011;48241;48.824;10.102;2022-08-18T15:14:30;5.97;;;5.47;;
62258;SDS011;48241;48.824;10.102;2022-08-18T15:16:57;6.32;;;5.68;;
62258;SDS011;48241;48.824;10.102;2022-08-18T15:19:24;6.68;;;5.43;;
62258;SDS011;48241;48.824;10.102;2022-08-18T15:21:50;6.07;;;5.57;;
62258;SDS011;48241;48.824;10.102;2022-08-18T15:24:38;6.28;;;5.50;;
62258;SDS011;48241;48.824;10.102;2022-08-18T15:27:28;6.78;;;5.13;;
62258;SDS011;48241;48.824;10.102;2022-08-18T15:30:00;6.30;;;5.70;;
62258;SDS011;48241;48.824;10.102;2022-08-18T15:32:29;6.45;;;5.60;;
62258;SDS011;48241;48.824;10.102;2022-08-18T15:34:54;6.18;;;5.57;;
62258;SDS011;48241;48.824;10.102;2022-08-18T15:37:20;8.10;;;5.80;;
62258;SDS011;48241;48.824;10.102;2022-08-18T15:39:47;6.10;;;5.40;;
62258;SDS011;48241;48.824;10.102;2022-08-18T15:42:13;6.82;;;6.15;;
62258;SDS011;48241;48.824;10.102;2022-08-18T15:44:39;8.40;;;5.50;;
62258;SDS011;48241;48.824;10.102;2022-08-18T15:47:04;6.13;;;5.63;;
62258;SDS011;48241;48.824;10.102;2022-08-18T15:49:31;6.90;;;5.85;;
62258;SDS011;48241;48.824;10.102;2022-08-18T15:51:57;8.07;;;5.90;;
62258;SDS011;48241;48.824;10.102;2022-08-18T15:54:26;6.70;;;6.00;;
62258;SDS011;48241;48.824;10.102;2022-08-18T15:56:51;6.50;;;5.78;;
62258;SDS011;48241;48.824;10.102;2022-08-18T15:59:17;7.07;;;6.25;;
62258;SDS011;48241;48.824;10.102;2022-08-18T16:01:42;9.20;;;5.72;;
62258;SDS011;48241;48.824;10.102;2022-08-18T16:04:08;7.05;;;5.85;;
62258;SDS011;48241;48.824;10.102;2022-08-18T16:06:34;6.18;;;5.60;;
62258;SDS011;48241;48.824;10.102;2022-08-18T16:09:03;6.88;;;5.65;;
62258;SDS011;48241;48.824;10.102;2022-08-18T16:11:29;6.75;;;5.40;;
62258;SDS011;48241;48.824;10.102;2022-08-18T16:13:54;6.28;;;5.43;;
62258;SDS011;48241;48.824;10.102;2022-08-18T16:16:22;6.20;;;5.68;;
62258;SDS011;48241;48.824;10.102;2022-08-18T16:18:49;7.80;;;6.00;;
62258;SDS011;48241;48.824;10.102;2022-08-18T16:21:18;7.78;;;5.68;;
62258;SDS011;48241;48.824;10.102;2022-08-18T16:23:46;6.40;;;5.80;;
62258;SDS011;48241;48.824;10.102;2022-08-18T16:26:14;6.65;;;5.53;;
62258;SDS011;48241;48.824;10.102;2022-08-18T16:28:41;6.80;;;5.32;;
62258;SDS011;48241;48.824;10.102;2022-08-18T16:31:09;6.38;;;5.60;;
62258;SDS011;48241;48.824;10.102;2022-08-18T16:33:39;7.88;;;5.63;;
62258;SDS011;48241;48.824;10.102;2022-08-18T16:36:06;6.90;;;5.78;;
62258;SDS011;48241;48.824;10.102;2022-08-18T16:38:34;8.18;;;6.05;;
62258;SDS011;48241;48.824;10.102;2022-08-18T16:41:09;8.15;;;6.00;;
62258;SDS011;48241;48.824;10.102;2022-08-18T16:43:40;7.38;;;6.20;;
62258;SDS011;48241;48.824;10.102;2022-08-18T16:46:08;7.45;;;6.20;;
62258;SDS011;48241;48.824;10.102;2022-08-18T16:48:35;6.88;;;5.93;;
62258;SDS011;48241;48.824;10.102;2022-08-18T16:51:01;7.03;;;6.15;;
62258;SDS011;48241;48.824;10.102;2022-08-18T16:53:27;7.22;;;6.18;;
62258;SDS011;48241;48.824;10.102;2022-08-18T16:55:53;8.02;;;5.90;;
62258;SDS011;48241;48.824;10.102;2022-08-18T16:58:19;8.43;;;6.25;;
62258;SDS011;48241;48.824;10.102;2022-08-18T17:01:04;8.32;;;6.53;;
62258;SDS011;48241;48.824;10.102;2022-08-18T17:03:48;6.80;;;6.13;;
62258;SDS011;48241;48.824;10.102;2022-08-18T17:06:33;7.28;;;6.53;;
62258;SDS011;48241;48.824;10.102;2022-08-18T17:08:59;7.85;;;7.05;;
62258;SDS011;48241;48.824;10.102;2022-08-18T17:11:26;9.05;;;6.97;;
62258;SDS011;48241;48.824;10.102;2022-08-18T17:13:52;8.25;;;7.22;;
62258;SDS011;48241;48.824;10.102;2022-08-18T17:16:19;8.13;;;7.43;;
62258;SDS011;48241;48.824;10.102;2022-08-18T17:18:46;7.90;;;7.10;;
62258;SDS011;48241;48.824;10.102;2022-08-18T17:21:13;8.80;;;7.90;;
62258;SDS011;48241;48.824;10.102;2022-08-18T17:23:42;8.75;;;7.80;;